sensor_id;sensor_type;location;lat;lon;timestamp;P1;durP1;ratioP1;P2;durP2;ratioP2
54555;SDS011;57291;37.520;15.106;2023-04-25T00:02:03;13.68;;;6.88;;
54555;SDS011;57291;37.520;15.106;2023-04-25T00:04:30;17.42;;;8.10;;
54555;SDS011;57291;37.520;15.106;2023-04-25T00:07:00;13.40;;;7.00;;
54555;SDS011;57291;37.520;15.106;2023-04-25T00:09:28;16.65;;;8.07;;
54555;SDS011;57291;37.520;15.106;2023-04-25T00:11:55;15.57;;;8.00;;
54555;SDS011;57291;37.520;15.106;2023-04-25T00:14:22;13.68;;;7.40;;
54555;SDS011;57291;37.520;15.106;2023-04-25T00:16:49;16.77;;;8.23;;
54555;SDS011;57291;37.520;15.106;2023-04-25T00:19:18;16.35;;;8.27;;
54555;SDS011;57291;37.520;15.106;2023-04-25T00:21:45;13.80;;;8.18;;
54555;SDS011;57291;37.520;15.106;2023-04-25T00:24:12;15.57;;;7.70;;
54555;SDS011;57291;37.520;15.106;2023-04-25T00:26:40;13.43;;;8.15;;
54555;SDS011;57291;37.520;15.106;2023-04-25T00:29:07;14.40;;;8.10;;
54555;SDS011;57291;37.520;15.106;2023-04-25T00:31:34;18.17;;;8.48;;
54555;SDS011;57291;37.520;15.106;2023-04-25T00:34:01;14.60;;;8.55;;
54555;SDS011;57291;37.520;15.106;2023-04-25T00:36:28;17.40;;;9.30;;
54555;SDS011;57291;37.520;15.106;2023-04-25T00:38:56;18.02;;;8.98;;
54555;SDS011;57291;37.520;15.106;2023-04-25T00:41:24;16.20;;;9.15;;
54555;SDS011;57291;37.520;15.106;2023-04-25T00:43:53;16.75;;;8.65;;
54555;SDS011;57291;37.520;15.106;2023-04-25T00:46:21;14.90;;;8.40;;
54555;SDS011;57291;37.520;15.106;2023-04-25T00:48:48;15.27;;;9.23;;
54555;SDS011;57291;37.520;15.106;2023-04-25T00:51:16;20.73;;;9.20;;
54555;SDS011;57291;37.520;15.106;2023-04-25T00:53:47;17.83;;;9.13;;
54555;SDS011;57291;37.520;15.106;2023-04-25T00:56:16;14.75;;;8.40;;
54555;SDS011;57291;37.520;15.106;2023-04-25T00:58:44;17.92;;;9.07;;
54555;SDS011;57291;37.520;15.106;2023-04-25T01:01:12;19.65;;;9.13;;
54555;SDS011;57291;37.520;15.106;2023-04-25T01:03:40;18.75;;;9.25;;
54555;SDS011;57291;37.520;15.106;2023-04-25T01:06:08;16.33;;;9.13;;
54555;SDS011;57291;37.520;15.106;2023-04-25T01:08:37;14.30;;;8.35;;
54555;SDS011;57291;37.520;15.106;2023-04-25T01:11:05;16.05;;;8.77;;
54555;SDS011;57291;37.520;15.106;2023-04-25T01:13:33;19.20;;;9.25;;
54555;SDS011;57291;37.520;15.106;2023-04-25T01:16:00;17.88;;;8.75;;
54555;SDS011;57291;37.520;15.106;2023-04-25T01:18:28;16.38;;;8.93;;
54555;SDS011;57291;37.520;15.106;2023-04-25T01:20:55;22.02;;;9.60;;
54555;SDS011;57291;37.520;15.106;2023-04-25T01:23:40;16.90;;;8.82;;
54555;SDS011;57291;37.520;15.106;2023-04-25T01:26:09;17.67;;;9.10;;
54555;SDS011;57291;37.520;15.106;2023-04-25T01:28:37;17.75;;;8.43;;
54555;SDS011;57291;37.520;15.106;2023-04-25T01:31:10;18.58;;;8.88;;
54555;SDS011;57291;37.520;15.106;2023-04-25T01:33:38;14.52;;;8.32;;
54555;SDS011;57291;37.520;15.106;2023-04-25T01:36:06;15.00;;;8.52;;
54555;SDS011;57291;37.520;15.106;2023-04-25T01:38:34;15.23;;;8.20;;
54555;SDS011;57291;37.520;15.106;2023-04-25T01:41:01;14.13;;;9.32;;
54555;SDS011;57291;37.520;15.106;2023-04-25T01:43:29;15.10;;;8.82;;
54555;SDS011;57291;37.520;15.106;2023-04-25T01:45:56;14.55;;;8.35;;
54555;SDS011;57291;37.520;15.106;2023-04-25T01:48:24;19.42;;;8.60;;
54555;SDS011;57291;37.520;15.106;2023-04-25T01:50:51;13.55;;;8.13;;
54555;SDS011;57291;37.520;15.106;2023-04-25T01:53:19;13.68;;;7.78;;
54555;SDS011;57291;37.520;15.106;2023-04-25T01:55:47;14.27;;;8.45;;
54555;SDS011;57291;37.520;15.106;2023-04-25T01:58:17;18.10;;;9.05;;
54555;SDS011;57291;37.520;15.106;2023-04-25T02:01:11;14.68;;;8.20;;
54555;SDS011;57291;37.520;15.106;2023-04-25T02:03:44;13.43;;;7.30;;
54555;SDS011;57291;37.520;15.106;2023-04-25T02:06:20;19.33;;;8.85;;
54555;SDS011;57291;37.520;15.106;2023-04-25T02:08:50;14.65;;;8.48;;
54555;SDS011;57291;37.520;15.106;2023-04-25T02:11:17;17.52;;;8.50;;
54555;SDS011;57291;37.520;15.106;2023-04-25T02:13:59;15.73;;;7.97;;
54555;SDS011;57291;37.520;15.106;2023-04-25T02:16:36;15.52;;;8.77;;
54555;SDS011;57291;37.520;15.106;2023-04-25T02:19:06;19.60;;;8.18;;
54555;SDS011;57291;37.520;15.106;2023-04-25T02:21:33;14.20;;;8.18;;
54555;SDS011;57291;37.520;15.106;2023-04-25T02:24:03;13.93;;;8.27;;
54555;SDS011;57291;37.520;15.106;2023-04-25T02:26:30;15.65;;;8.50;;
54555;SDS011;57291;37.520;15.106;2023-04-25T02:28:57;15.95;;;8.50;;
54555;SDS011;57291;37.520;15.106;2023-04-25T02:31:24;16.42;;;8.10;;
54555;SDS011;57291;37.520;15.106;2023-04-25T02:33:52;15.15;;;8.02;;
54555;SDS011;57291;37.520;15.106;2023-04-25T02:36:19;18.60;;;8.93;;
54555;SDS011;57291;37.520;15.106;2023-04-25T02:38:47;14.23;;;8.10;;
54555;SDS011;57291;37.520;15.106;2023-04-25T02:41:14;14.25;;;8.98;;
54555;SDS011;57291;37.520;15.106;2023-04-25T02:43:42;13.20;;;7.65;;
54555;SDS011;57291;37.520;15.106;2023-04-25T02:46:09;17.58;;;9.02;;
54555;SDS011;57291;37.520;15.106;2023-04-25T02:48:36;19.70;;;8.88;;
54555;SDS011;57291;37.520;15.106;2023-04-25T02:51:03;17.02;;;8.98;;
54555;SDS011;57291;37.520;15.106;2023-04-25T02:53:31;16.75;;;8.38;;
54555;SDS011;57291;37.520;15.106;2023-04-25T02:55:58;13.75;;;8.05;;
54555;SDS011;57291;37.520;15.106;2023-04-25T02:58:25;18.75;;;8.73;;
54555;SDS011;57291;37.520;15.106;2023-04-25T03:00:53;17.45;;;8.45;;
54555;SDS011;57291;37.520;15.106;2023-04-25T03:03:21;15.25;;;7.57;;
54555;SDS011;57291;37.520;15.106;2023-04-25T03:05:50;15.43;;;8.20;;
54555;SDS011;57291;37.520;15.106;2023-04-25T03:08:23;15.30;;;8.25;;
54555;SDS011;57291;37.520;15.106;2023-04-25T03:10:52;11.57;;;7.40;;
54555;SDS011;57291;37.520;15.106;2023-04-25T03:13:23;16.58;;;7.75;;
54555;SDS011;57291;37.520;15.106;2023-04-25T03:15:51;14.68;;;7.43;;
54555;SDS011;57291;37.520;15.106;2023-04-25T03:18:18;13.65;;;6.97;;
54555;SDS011;57291;37.520;15.106;2023-04-25T03:20:45;12.65;;;6.40;;
54555;SDS011;57291;37.520;15.106;2023-04-25T03:23:13;13.75;;;6.82;;
54555;SDS011;57291;37.520;15.106;2023-04-25T03:25:41;13.98;;;6.90;;
54555;SDS011;57291;37.520;15.106;2023-04-25T03:28:08;11.48;;;6.20;;
54555;SDS011;57291;37.520;15.106;2023-04-25T03:30:35;13.88;;;5.90;;
54555;SDS011;57291;37.520;15.106;2023-04-25T03:33:02;11.20;;;5.60;;
54555;SDS011;57291;37.520;15.106;2023-04-25T03:35:30;12.00;;;5.07;;
54555;SDS011;57291;37.520;15.106;2023-04-25T03:37:57;9.90;;;4.75;;
54555;SDS011;57291;37.520;15.106;2023-04-25T03:40:28;11.73;;;4.93;;
54555;SDS011;57291;37.520;15.106;2023-04-25T03:43:31;10.45;;;4.68;;
54555;SDS011;57291;37.520;15.106;2023-04-25T03:46:03;9.43;;;4.50;;
54555;SDS011;57291;37.520;15.106;2023-04-25T03:48:31;10.20;;;3.80;;
54555;SDS011;57291;37.520;15.106;2023-04-25T03:50:58;7.18;;;3.80;;
54555;SDS011;57291;37.520;15.106;2023-04-25T03:53:26;7.10;;;3.40;;
54555;SDS011;57291;37.520;15.106;2023-04-25T03:56:19;10.27;;;3.27;;
54555;SDS011;57291;37.520;15.106;2023-04-25T03:58:59;10.93;;;3.58;;
54555;SDS011;57291;37.520;15.106;2023-04-25T04:01:28;9.07;;;3.78;;
54555;SDS011;57291;37.520;15.106;2023-04-25T04:03:56;8.05;;;2.95;;
54555;SDS011;57291;37.520;15.106;2023-04-25T04:06:25;6.97;;;3.00;;
54555;SDS011;57291;37.520;15.106;2023-04-25T04:09:01;5.47;;;2.90;;
54555;SDS011;57291;37.520;15.106;2023-04-25T04:11:31;7.93;;;3.00;;
54555;SDS011;57291;37.520;15.106;2023-04-25T04:13:59;4.25;;;2.53;;
54555;SDS011;57291;37.520;15.106;2023-04-25T04:16:27;6.72;;;2.70;;
54555;SDS011;57291;37.520;15.106;2023-04-25T04:18:54;6.15;;;2.58;;
54555;SDS011;57291;37.520;15.106;2023-04-25T04:21:21;5.15;;;2.60;;
54555;SDS011;57291;37.520;15.106;2023-04-25T04:23:49;5.82;;;2.90;;
54555;SDS011;57291;37.520;15.106;2023-04-25T04:26:16;7.60;;;3.10;;
54555;SDS011;57291;37.520;15.106;2023-04-25T04:28:58;7.22;;;3.63;;
54555;SDS011;57291;37.520;15.106;2023-04-25T04:31:49;5.53;;;2.83;;
54555;SDS011;57291;37.520;15.106;2023-04-25T04:34:18;5.88;;;2.83;;
54555;SDS011;57291;37.520;15.106;2023-04-25T04:36:45;8.30;;;3.20;;
54555;SDS011;57291;37.520;15.106;2023-04-25T04:39:13;8.27;;;3.08;;
54555;SDS011;57291;37.520;15.106;2023-04-25T04:41:57;7.85;;;3.10;;
54555;SDS011;57291;37.520;15.106;2023-04-25T04:45:03;7.68;;;3.00;;
54555;SDS011;57291;37.520;15.106;2023-04-25T04:47:49;8.13;;;3.03;;
54555;SDS011;57291;37.520;15.106;2023-04-25T04:50:46;5.65;;;3.10;;
54555;SDS011;57291;37.520;15.106;2023-04-25T04:53:36;7.43;;;3.58;;
54555;SDS011;57291;37.520;15.106;2023-04-25T04:56:19;7.28;;;3.55;;
54555;SDS011;57291;37.520;15.106;2023-04-25T04:59:09;10.68;;;3.60;;
54555;SDS011;57291;37.520;15.106;2023-04-25T05:02:00;7.55;;;3.63;;
54555;SDS011;57291;37.520;15.106;2023-04-25T05:04:36;9.40;;;3.22;;
54555;SDS011;57291;37.520;15.106;2023-04-25T05:07:16;6.65;;;2.83;;
54555;SDS011;57291;37.520;15.106;2023-04-25T05:09:51;4.88;;;2.92;;
54555;SDS011;57291;37.520;15.106;2023-04-25T05:12:36;8.02;;;2.75;;
54555;SDS011;57291;37.520;15.106;2023-04-25T05:15:36;5.43;;;2.67;;
54555;SDS011;57291;37.520;15.106;2023-04-25T05:18:30;6.20;;;3.35;;
54555;SDS011;57291;37.520;15.106;2023-04-25T05:21:26;6.85;;;4.07;;
54555;SDS011;57291;37.520;15.106;2023-04-25T05:24:14;8.10;;;3.60;;
54555;SDS011;57291;37.520;15.106;2023-04-25T05:27:00;7.70;;;3.58;;
54555;SDS011;57291;37.520;15.106;2023-04-25T05:29:47;7.80;;;3.85;;
54555;SDS011;57291;37.520;15.106;2023-04-25T05:32:27;7.10;;;4.10;;
54555;SDS011;57291;37.520;15.106;2023-04-25T05:34:55;8.60;;;4.10;;
54555;SDS011;57291;37.520;15.106;2023-04-25T05:37:30;7.00;;;3.00;;
54555;SDS011;57291;37.520;15.106;2023-04-25T05:40:09;8.70;;;3.22;;
54555;SDS011;57291;37.520;15.106;2023-04-25T05:42:57;9.07;;;3.25;;
54555;SDS011;57291;37.520;15.106;2023-04-25T05:45:34;8.02;;;3.80;;
54555;SDS011;57291;37.520;15.106;2023-04-25T05:48:25;7.53;;;3.03;;
54555;SDS011;57291;37.520;15.106;2023-04-25T05:50:58;6.38;;;3.28;;
54555;SDS011;57291;37.520;15.106;2023-04-25T05:53:37;6.22;;;3.90;;
54555;SDS011;57291;37.520;15.106;2023-04-25T05:56:05;7.20;;;3.55;;
54555;SDS011;57291;37.520;15.106;2023-04-25T05:58:33;6.35;;;3.05;;
54555;SDS011;57291;37.520;15.106;2023-04-25T06:01:01;6.38;;;3.15;;
54555;SDS011;57291;37.520;15.106;2023-04-25T06:03:29;6.45;;;3.13;;
54555;SDS011;57291;37.520;15.106;2023-04-25T06:05:57;10.23;;;3.33;;
54555;SDS011;57291;37.520;15.106;2023-04-25T06:08:25;5.32;;;2.97;;
54555;SDS011;57291;37.520;15.106;2023-04-25T06:10:52;6.70;;;3.03;;
54555;SDS011;57291;37.520;15.106;2023-04-25T06:13:19;6.35;;;2.83;;
54555;SDS011;57291;37.520;15.106;2023-04-25T06:15:46;5.43;;;2.70;;
54555;SDS011;57291;37.520;15.106;2023-04-25T06:18:14;6.20;;;2.65;;
54555;SDS011;57291;37.520;15.106;2023-04-25T06:20:41;10.25;;;3.13;;
54555;SDS011;57291;37.520;15.106;2023-04-25T06:23:09;6.25;;;3.15;;
54555;SDS011;57291;37.520;15.106;2023-04-25T06:25:44;5.25;;;2.65;;
54555;SDS011;57291;37.520;15.106;2023-04-25T06:28:12;7.22;;;2.70;;
54555;SDS011;57291;37.520;15.106;2023-04-25T06:30:41;8.55;;;2.75;;
54555;SDS011;57291;37.520;15.106;2023-04-25T06:33:12;6.18;;;2.90;;
54555;SDS011;57291;37.520;15.106;2023-04-25T06:35:40;6.32;;;2.72;;
54555;SDS011;57291;37.520;15.106;2023-04-25T06:38:10;5.00;;;2.13;;
54555;SDS011;57291;37.520;15.106;2023-04-25T06:40:41;7.10;;;2.30;;
54555;SDS011;57291;37.520;15.106;2023-04-25T06:43:09;5.22;;;2.25;;
54555;SDS011;57291;37.520;15.106;2023-04-25T06:46:04;6.63;;;2.50;;
54555;SDS011;57291;37.520;15.106;2023-04-25T06:48:38;5.35;;;2.30;;
54555;SDS011;57291;37.520;15.106;2023-04-25T06:51:05;5.32;;;2.03;;
54555;SDS011;57291;37.520;15.106;2023-04-25T06:53:34;6.03;;;2.10;;
54555;SDS011;57291;37.520;15.106;2023-04-25T06:56:03;4.35;;;2.40;;
54555;SDS011;57291;37.520;15.106;2023-04-25T06:58:54;7.15;;;2.28;;
54555;SDS011;57291;37.520;15.106;2023-04-25T07:01:47;4.82;;;1.88;;
54555;SDS011;57291;37.520;15.106;2023-04-25T07:04:17;6.90;;;1.98;;
54555;SDS011;57291;37.520;15.106;2023-04-25T07:06:49;4.25;;;2.22;;
54555;SDS011;57291;37.520;15.106;2023-04-25T07:09:21;8.30;;;2.10;;
54555;SDS011;57291;37.520;15.106;2023-04-25T07:11:49;6.18;;;2.00;;
54555;SDS011;57291;37.520;15.106;2023-04-25T07:14:17;8.68;;;2.58;;
54555;SDS011;57291;37.520;15.106;2023-04-25T07:16:44;5.10;;;2.53;;
54555;SDS011;57291;37.520;15.106;2023-04-25T07:19:12;6.00;;;2.60;;
54555;SDS011;57291;37.520;15.106;2023-04-25T07:21:39;5.20;;;2.25;;
54555;SDS011;57291;37.520;15.106;2023-04-25T07:24:07;5.47;;;2.83;;
54555;SDS011;57291;37.520;15.106;2023-04-25T07:26:40;7.85;;;2.88;;
54555;SDS011;57291;37.520;15.106;2023-04-25T07:29:46;7.80;;;3.10;;
54555;SDS011;57291;37.520;15.106;2023-04-25T07:32:13;5.15;;;2.50;;
54555;SDS011;57291;37.520;15.106;2023-04-25T07:34:41;5.45;;;2.42;;
54555;SDS011;57291;37.520;15.106;2023-04-25T07:37:08;6.00;;;3.05;;
54555;SDS011;57291;37.520;15.106;2023-04-25T07:39:46;4.32;;;2.58;;
54555;SDS011;57291;37.520;15.106;2023-04-25T07:42:14;6.50;;;3.08;;
54555;SDS011;57291;37.520;15.106;2023-04-25T07:44:43;6.30;;;2.78;;
54555;SDS011;57291;37.520;15.106;2023-04-25T07:47:12;6.50;;;3.28;;
54555;SDS011;57291;37.520;15.106;2023-04-25T07:49:44;9.38;;;4.40;;
54555;SDS011;57291;37.520;15.106;2023-04-25T07:52:13;11.13;;;4.30;;
54555;SDS011;57291;37.520;15.106;2023-04-25T07:54:47;11.23;;;4.32;;
54555;SDS011;57291;37.520;15.106;2023-04-25T07:57:20;9.45;;;3.83;;
54555;SDS011;57291;37.520;15.106;2023-04-25T07:59:48;9.40;;;3.85;;
54555;SDS011;57291;37.520;15.106;2023-04-25T08:02:17;7.65;;;3.58;;
54555;SDS011;57291;37.520;15.106;2023-04-25T08:04:44;7.40;;;3.85;;
54555;SDS011;57291;37.520;15.106;2023-04-25T08:07:15;12.73;;;4.45;;
54555;SDS011;57291;37.520;15.106;2023-04-25T08:09:52;9.93;;;4.43;;
54555;SDS011;57291;37.520;15.106;2023-04-25T08:12:28;13.90;;;4.70;;
54555;SDS011;57291;37.520;15.106;2023-04-25T08:14:55;10.82;;;5.07;;
54555;SDS011;57291;37.520;15.106;2023-04-25T08:17:26;10.13;;;4.20;;
54555;SDS011;57291;37.520;15.106;2023-04-25T08:19:53;12.15;;;4.60;;
54555;SDS011;57291;37.520;15.106;2023-04-25T08:22:25;16.27;;;4.75;;
54555;SDS011;57291;37.520;15.106;2023-04-25T08:25:06;16.17;;;5.10;;
54555;SDS011;57291;37.520;15.106;2023-04-25T08:27:34;10.10;;;5.00;;
54555;SDS011;57291;37.520;15.106;2023-04-25T08:30:02;14.07;;;4.22;;
54555;SDS011;57291;37.520;15.106;2023-04-25T08:32:30;9.65;;;4.30;;
54555;SDS011;57291;37.520;15.106;2023-04-25T08:35:20;6.90;;;3.80;;
54555;SDS011;57291;37.520;15.106;2023-04-25T08:37:49;11.13;;;3.70;;
54555;SDS011;57291;37.520;15.106;2023-04-25T08:40:16;8.23;;;3.70;;
54555;SDS011;57291;37.520;15.106;2023-04-25T08:43:06;10.13;;;3.92;;
54555;SDS011;57291;37.520;15.106;2023-04-25T08:45:39;10.50;;;4.13;;
54555;SDS011;57291;37.520;15.106;2023-04-25T08:48:18;11.20;;;4.20;;
54555;SDS011;57291;37.520;15.106;2023-04-25T08:50:49;10.55;;;4.15;;
54555;SDS011;57291;37.520;15.106;2023-04-25T08:53:31;15.68;;;5.10;;
54555;SDS011;57291;37.520;15.106;2023-04-25T08:56:03;7.90;;;4.10;;
54555;SDS011;57291;37.520;15.106;2023-04-25T08:58:35;10.40;;;4.10;;
54555;SDS011;57291;37.520;15.106;2023-04-25T09:01:05;9.48;;;3.33;;
54555;SDS011;57291;37.520;15.106;2023-04-25T09:03:40;11.48;;;3.40;;
54555;SDS011;57291;37.520;15.106;2023-04-25T09:06:09;6.65;;;2.70;;
54555;SDS011;57291;37.520;15.106;2023-04-25T09:08:38;8.45;;;2.65;;
54555;SDS011;57291;37.520;15.106;2023-04-25T09:11:07;10.57;;;2.88;;
54555;SDS011;57291;37.520;15.106;2023-04-25T09:13:35;9.93;;;2.38;;
54555;SDS011;57291;37.520;15.106;2023-04-25T09:16:20;8.38;;;2.92;;
54555;SDS011;57291;37.520;15.106;2023-04-25T09:19:21;7.63;;;2.40;;
54555;SDS011;57291;37.520;15.106;2023-04-25T09:22:06;5.22;;;2.88;;
54555;SDS011;57291;37.520;15.106;2023-04-25T09:24:35;8.40;;;2.45;;
54555;SDS011;57291;37.520;15.106;2023-04-25T09:27:11;5.25;;;2.33;;
54555;SDS011;57291;37.520;15.106;2023-04-25T09:29:45;8.07;;;2.92;;
54555;SDS011;57291;37.520;15.106;2023-04-25T09:32:21;7.50;;;2.92;;
54555;SDS011;57291;37.520;15.106;2023-04-25T09:34:56;13.27;;;2.95;;
54555;SDS011;57291;37.520;15.106;2023-04-25T09:37:27;9.57;;;3.03;;
54555;SDS011;57291;37.520;15.106;2023-04-25T09:40:27;6.25;;;2.72;;
54555;SDS011;57291;37.520;15.106;2023-04-25T09:43:24;12.43;;;3.20;;
54555;SDS011;57291;37.520;15.106;2023-04-25T09:45:54;13.82;;;3.10;;
54555;SDS011;57291;37.520;15.106;2023-04-25T09:48:27;8.73;;;2.42;;
54555;SDS011;57291;37.520;15.106;2023-04-25T09:53:38;8.43;;;3.13;;
54555;SDS011;57291;37.520;15.106;2023-04-25T09:56:13;12.00;;;3.60;;
54555;SDS011;57291;37.520;15.106;2023-04-25T09:58:40;6.93;;;3.10;;
54555;SDS011;57291;37.520;15.106;2023-04-25T10:01:09;12.52;;;3.10;;
54555;SDS011;57291;37.520;15.106;2023-04-25T10:03:50;9.27;;;3.10;;
54555;SDS011;57291;37.520;15.106;2023-04-25T10:06:35;11.90;;;3.10;;
54555;SDS011;57291;37.520;15.106;2023-04-25T10:09:05;9.07;;;3.47;;
54555;SDS011;57291;37.520;15.106;2023-04-25T10:11:34;8.05;;;3.05;;
54555;SDS011;57291;37.520;15.106;2023-04-25T10:14:03;6.88;;;3.42;;
54555;SDS011;57291;37.520;15.106;2023-04-25T10:16:31;9.15;;;3.90;;
54555;SDS011;57291;37.520;15.106;2023-04-25T10:18:59;7.03;;;3.50;;
54555;SDS011;57291;37.520;15.106;2023-04-25T10:21:27;14.15;;;3.78;;
54555;SDS011;57291;37.520;15.106;2023-04-25T10:23:58;10.77;;;3.70;;
54555;SDS011;57291;37.520;15.106;2023-04-25T10:26:26;11.60;;;3.70;;
54555;SDS011;57291;37.520;15.106;2023-04-25T10:28:57;11.13;;;4.20;;
54555;SDS011;57291;37.520;15.106;2023-04-25T10:31:26;11.43;;;3.92;;
54555;SDS011;57291;37.520;15.106;2023-04-25T10:33:54;10.10;;;4.38;;
54555;SDS011;57291;37.520;15.106;2023-04-25T10:36:21;10.38;;;3.63;;
54555;SDS011;57291;37.520;15.106;2023-04-25T10:38:50;9.65;;;3.90;;
54555;SDS011;57291;37.520;15.106;2023-04-25T10:41:21;11.27;;;3.40;;
54555;SDS011;57291;37.520;15.106;2023-04-25T10:43:49;11.48;;;3.42;;
54555;SDS011;57291;37.520;15.106;2023-04-25T10:48:55;9.07;;;3.83;;
54555;SDS011;57291;37.520;15.106;2023-04-25T10:51:36;9.27;;;3.72;;
54555;SDS011;57291;37.520;15.106;2023-04-25T10:54:21;9.23;;;3.55;;
54555;SDS011;57291;37.520;15.106;2023-04-25T10:56:51;7.25;;;3.28;;
54555;SDS011;57291;37.520;15.106;2023-04-25T10:59:19;10.57;;;3.80;;
54555;SDS011;57291;37.520;15.106;2023-04-25T11:01:51;8.38;;;3.80;;
54555;SDS011;57291;37.520;15.106;2023-04-25T11:04:22;7.43;;;3.20;;
54555;SDS011;57291;37.520;15.106;2023-04-25T11:09:39;14.23;;;4.40;;
54555;SDS011;57291;37.520;15.106;2023-04-25T11:12:08;13.20;;;4.22;;
54555;SDS011;57291;37.520;15.106;2023-04-25T11:14:35;8.13;;;3.80;;
54555;SDS011;57291;37.520;15.106;2023-04-25T11:17:02;8.00;;;3.60;;
54555;SDS011;57291;37.520;15.106;2023-04-25T11:19:30;12.95;;;4.68;;
54555;SDS011;57291;37.520;15.106;2023-04-25T11:21:57;12.10;;;4.00;;
54555;SDS011;57291;37.520;15.106;2023-04-25T11:24:29;13.75;;;4.60;;
54555;SDS011;57291;37.520;15.106;2023-04-25T11:26:58;9.23;;;4.10;;
54555;SDS011;57291;37.520;15.106;2023-04-25T11:29:26;8.85;;;3.70;;
54555;SDS011;57291;37.520;15.106;2023-04-25T11:31:54;10.55;;;4.13;;
54555;SDS011;57291;37.520;15.106;2023-04-25T11:34:25;12.30;;;5.82;;
54555;SDS011;57291;37.520;15.106;2023-04-25T11:36:53;10.60;;;3.95;;
54555;SDS011;57291;37.520;15.106;2023-04-25T11:39:20;14.38;;;4.78;;
54555;SDS011;57291;37.520;15.106;2023-04-25T11:41:47;12.40;;;4.40;;
54555;SDS011;57291;37.520;15.106;2023-04-25T11:44:15;12.68;;;4.43;;
54555;SDS011;57291;37.520;15.106;2023-04-25T11:46:43;12.77;;;4.68;;
54555;SDS011;57291;37.520;15.106;2023-04-25T11:49:11;9.30;;;4.35;;
54555;SDS011;57291;37.520;15.106;2023-04-25T11:51:39;10.02;;;4.25;;
54555;SDS011;57291;37.520;15.106;2023-04-25T11:54:11;11.23;;;4.10;;
54555;SDS011;57291;37.520;15.106;2023-04-25T11:56:42;12.95;;;4.72;;
54555;SDS011;57291;37.520;15.106;2023-04-25T11:59:10;10.63;;;4.97;;
54555;SDS011;57291;37.520;15.106;2023-04-25T12:01:39;11.57;;;4.70;;
54555;SDS011;57291;37.520;15.106;2023-04-25T12:04:11;13.02;;;6.03;;
54555;SDS011;57291;37.520;15.106;2023-04-25T12:06:44;11.90;;;4.65;;
54555;SDS011;57291;37.520;15.106;2023-04-25T12:09:15;9.85;;;4.43;;
54555;SDS011;57291;37.520;15.106;2023-04-25T12:11:56;8.18;;;3.85;;
54555;SDS011;57291;37.520;15.106;2023-04-25T12:14:25;12.38;;;4.65;;
54555;SDS011;57291;37.520;15.106;2023-04-25T12:16:56;14.25;;;4.60;;
54555;SDS011;57291;37.520;15.106;2023-04-25T12:19:33;9.32;;;4.45;;
54555;SDS011;57291;37.520;15.106;2023-04-25T12:22:02;11.70;;;4.35;;
54555;SDS011;57291;37.520;15.106;2023-04-25T12:24:45;8.85;;;4.22;;
54555;SDS011;57291;37.520;15.106;2023-04-25T12:27:13;13.65;;;5.22;;
54555;SDS011;57291;37.520;15.106;2023-04-25T12:29:52;11.48;;;4.18;;
54555;SDS011;57291;37.520;15.106;2023-04-25T12:32:21;9.88;;;4.03;;
54555;SDS011;57291;37.520;15.106;2023-04-25T12:34:49;9.40;;;3.88;;
54555;SDS011;57291;37.520;15.106;2023-04-25T12:37:16;8.30;;;3.55;;
54555;SDS011;57291;37.520;15.106;2023-04-25T12:39:43;10.20;;;4.05;;
54555;SDS011;57291;37.520;15.106;2023-04-25T12:42:10;13.27;;;4.47;;
54555;SDS011;57291;37.520;15.106;2023-04-25T12:44:40;12.63;;;4.40;;
54555;SDS011;57291;37.520;15.106;2023-04-25T12:47:08;8.82;;;3.97;;
54555;SDS011;57291;37.520;15.106;2023-04-25T12:49:35;10.23;;;4.00;;
54555;SDS011;57291;37.520;15.106;2023-04-25T12:52:02;11.05;;;4.18;;
54555;SDS011;57291;37.520;15.106;2023-04-25T12:54:30;8.30;;;4.03;;
54555;SDS011;57291;37.520;15.106;2023-04-25T12:56:57;13.07;;;4.20;;
54555;SDS011;57291;37.520;15.106;2023-04-25T12:59:24;6.60;;;3.67;;
54555;SDS011;57291;37.520;15.106;2023-04-25T13:01:51;9.50;;;4.22;;
54555;SDS011;57291;37.520;15.106;2023-04-25T13:04:19;9.65;;;3.90;;
54555;SDS011;57291;37.520;15.106;2023-04-25T13:06:47;10.93;;;4.32;;
54555;SDS011;57291;37.520;15.106;2023-04-25T13:09:15;8.40;;;4.50;;
54555;SDS011;57291;37.520;15.106;2023-04-25T13:11:42;10.98;;;4.75;;
54555;SDS011;57291;37.520;15.106;2023-04-25T13:14:09;10.30;;;3.80;;
54555;SDS011;57291;37.520;15.106;2023-04-25T13:16:36;10.50;;;4.40;;
54555;SDS011;57291;37.520;15.106;2023-04-25T13:19:04;9.02;;;4.40;;
54555;SDS011;57291;37.520;15.106;2023-04-25T13:21:32;9.73;;;4.43;;
54555;SDS011;57291;37.520;15.106;2023-04-25T13:23:59;11.05;;;4.40;;
54555;SDS011;57291;37.520;15.106;2023-04-25T13:26:26;8.50;;;4.38;;
54555;SDS011;57291;37.520;15.106;2023-04-25T13:28:53;12.60;;;4.78;;
54555;SDS011;57291;37.520;15.106;2023-04-25T13:31:20;8.60;;;4.20;;
54555;SDS011;57291;37.520;15.106;2023-04-25T13:33:48;13.35;;;4.72;;
54555;SDS011;57291;37.520;15.106;2023-04-25T13:36:16;11.65;;;5.07;;
54555;SDS011;57291;37.520;15.106;2023-04-25T13:38:43;12.40;;;4.30;;
54555;SDS011;57291;37.520;15.106;2023-04-25T13:41:12;11.00;;;5.10;;
54555;SDS011;57291;37.520;15.106;2023-04-25T13:43:45;11.37;;;4.80;;
54555;SDS011;57291;37.520;15.106;2023-04-25T13:46:14;14.32;;;5.22;;
54555;SDS011;57291;37.520;15.106;2023-04-25T13:49:02;9.80;;;4.43;;
54555;SDS011;57291;37.520;15.106;2023-04-25T13:51:38;11.35;;;4.93;;
54555;SDS011;57291;37.520;15.106;2023-04-25T13:54:05;9.10;;;3.95;;
54555;SDS011;57291;37.520;15.106;2023-04-25T13:56:32;10.60;;;4.90;;
54555;SDS011;57291;37.520;15.106;2023-04-25T13:59:00;9.57;;;4.38;;
54555;SDS011;57291;37.520;15.106;2023-04-25T14:01:27;9.57;;;4.07;;
54555;SDS011;57291;37.520;15.106;2023-04-25T14:03:54;7.65;;;3.83;;
54555;SDS011;57291;37.520;15.106;2023-04-25T14:06:22;11.65;;;4.68;;
54555;SDS011;57291;37.520;15.106;2023-04-25T14:08:50;10.35;;;4.85;;
54555;SDS011;57291;37.520;15.106;2023-04-25T14:11:17;13.90;;;4.70;;
54555;SDS011;57291;37.520;15.106;2023-04-25T14:13:45;8.57;;;4.22;;
54555;SDS011;57291;37.520;15.106;2023-04-25T14:16:12;10.25;;;4.10;;
54555;SDS011;57291;37.520;15.106;2023-04-25T14:18:40;14.27;;;5.20;;
54555;SDS011;57291;37.520;15.106;2023-04-25T14:21:07;11.30;;;4.50;;
54555;SDS011;57291;37.520;15.106;2023-04-25T14:23:35;10.80;;;4.32;;
54555;SDS011;57291;37.520;15.106;2023-04-25T14:26:03;12.20;;;4.88;;
54555;SDS011;57291;37.520;15.106;2023-04-25T14:28:30;8.82;;;4.45;;
54555;SDS011;57291;37.520;15.106;2023-04-25T14:30:57;10.57;;;4.25;;
54555;SDS011;57291;37.520;15.106;2023-04-25T14:33:24;12.10;;;4.55;;
54555;SDS011;57291;37.520;15.106;2023-04-25T14:35:51;12.45;;;3.33;;
54555;SDS011;57291;37.520;15.106;2023-04-25T14:38:19;10.68;;;4.13;;
54555;SDS011;57291;37.520;15.106;2023-04-25T14:40:49;9.38;;;3.78;;
54555;SDS011;57291;37.520;15.106;2023-04-25T14:43:17;13.52;;;4.68;;
54555;SDS011;57291;37.520;15.106;2023-04-25T14:45:44;19.55;;;4.65;;
54555;SDS011;57291;37.520;15.106;2023-04-25T14:48:11;11.60;;;4.05;;
54555;SDS011;57291;37.520;15.106;2023-04-25T14:50:39;9.82;;;4.57;;
54555;SDS011;57291;37.520;15.106;2023-04-25T14:53:06;12.85;;;4.53;;
54555;SDS011;57291;37.520;15.106;2023-04-25T14:55:33;13.60;;;4.22;;
54555;SDS011;57291;37.520;15.106;2023-04-25T14:58:00;12.52;;;4.22;;
54555;SDS011;57291;37.520;15.106;2023-04-25T15:00:27;15.98;;;4.95;;
54555;SDS011;57291;37.520;15.106;2023-04-25T15:02:55;17.83;;;5.38;;